Flight Track Log - Related Links

Times and Time Zones

All times are in EST time to prevent confusion due to time zone crossing. See the OPT438 flight status page for this flight to view local times or setup timezone preferences in your user account.

Time Position Orientation Groundspeed Altitude Reporting Facility
EST Latitude Longitude Course Direction KTS MPH feet Rate Location/Type
Sat 10:10:30 AM 26.0742 -80.1667 275° West 148 170 700  Level Miami Center
Sat 10:11:19 AM 26.0792 -80.2247 275° West 270 311 3,100 2,324 Climbing Miami Center
Sat 10:12:21 AM 26.0900 -80.2989 279° West 252 290 5,000 891 Climbing Miami Center
Sat 10:13:27 AM 26.1236 -80.3786 295° West 249 287 5,000 832 Level Miami Center
Sat 10:14:38 AM 26.1614 -80.4561 299° West 259 298 6,900 2,198 Climbing Miami Center
Sat 10:15:38 AM 26.1950 -80.5336 296° West 266 306 9,800 2,250 Climbing Miami Center
Sat 10:16:38 AM 26.2347 -80.6136 299° West 277 319 11,400 1,350 Climbing Miami Center
Sat 10:17:38 AM 26.3128 -80.6692 327° Northwest 319 367 12,500 1,350 Climbing Miami Center
Sat 10:18:38 AM 26.3714 -80.7361 314° West 331 381 14,100 1,700 Climbing Miami Center
Sat 10:19:38 AM 26.4358 -80.8286 308° West 344 396 15,900 1,550 Climbing Miami Center
Sat 10:20:38 AM 26.4881 -80.9022 308° West 344 396 17,200 1,100 Climbing Miami Center
Sat 10:21:38 AM 26.5542 -80.9997 307° West 351 404 18,100 900 Climbing Miami Center
Sat 10:22:38 AM 26.6164 -81.0878 308° West 351 404 19,000 1,050 Climbing Miami Center
Sat 10:23:38 AM 26.6725 -81.1667 309° West 356 410 20,200 1,200 Climbing Miami Center
Sat 10:24:38 AM 26.7328 -81.2503 309° West 356 410 21,400 1,300 Climbing Miami Center
Sat 10:25:38 AM 26.7986 -81.3503 306° West 351 404 22,800 1,300 Climbing Miami Center
Sat 10:26:38 AM 26.8500 -81.4431 302° West 351 404 24,000 1,200 Climbing Miami Center
Sat 10:27:38 AM 26.9011 -81.5383 301° West 351 404 25,200 1,150 Climbing Miami Center
Sat 10:28:38 AM 26.9294 -81.6303 289° West 351 404 26,300 1,200 Climbing Miami Center
Sat 10:29:38 AM 26.9633 -81.7458 288° West 351 404 27,600 1,250 Climbing Miami Center
Sat 10:30:38 AM 26.9931 -81.8494 288° West 351 404 28,800 1,200 Climbing Miami Center
Sat 10:31:38 AM 27.0208 -81.9533 287° West 351 404 30,000 1,200 Climbing Miami Center
Sat 10:32:38 AM 27.0506 -82.0569 288° West 351 404 31,200 1,000 Climbing Miami Center
Sat 10:33:38 AM 27.0806 -82.1517 290° West 351 404 32,000 650 Climbing Miami Center
Sat 10:34:38 AM 27.1078 -82.2625 285° West 356 410 32,500 600 Climbing Miami Center
Sat 10:35:38 AM 27.1392 -82.3689 288° West 362 417 33,200 700 Climbing Miami Center
Sat 10:36:38 AM 27.1683 -82.4778 287° West 367 422 33,900 750 Climbing Miami Center
Sat 10:37:38 AM 27.2033 -82.5983 288° West 373 429 34,700 750 Climbing Miami Center
Sat 10:38:38 AM 27.2344 -82.7072 288° West 368 423 35,400 700 Climbing Miami Center
Sat 10:39:38 AM 27.2614 -82.8136 286° West 368 423 36,100 650 Climbing Miami Center
Sat 10:40:38 AM 27.2908 -82.9108 289° West 368 423 36,700 650 Climbing Miami Center
Sat 10:41:38 AM 27.3217 -83.0178 288° West 368 423 37,400 700 Climbing Miami Center
Sat 10:42:38 AM 27.3483 -83.1242 286° West 368 423 38,100 700 Climbing Miami Center
Sat 10:43:38 AM 27.3750 -83.2286 286° West 363 418 38,800 700 Climbing Miami Center
Sat 10:44:38 AM 27.4061 -83.3283 289° West 353 406 39,500 600 Climbing Miami Center
Sat 10:45:38 AM 27.4328 -83.4281 287° West 346 398 40,000 250 Climbing Miami Center
Sat 10:46:38 AM 27.4575 -83.5253 286° West 340 391 40,000  Level Miami Center
Sat 10:47:38 AM 27.4842 -83.6250 287° West 335 386 40,000  Level Miami Center
Sat 10:48:38 AM 27.5067 -83.7247 284° West 335 386 40,000  Level Miami Center
Sat 10:49:38 AM 27.5353 -83.8222 288° West 335 386 40,000  Level Miami Center
Sat 10:50:38 AM 27.5661 -83.9178 290° West 329 379 40,000  Level Miami Center
Sat 10:51:38 AM 27.5906 -84.0175 285° West 329 379 40,000  Level Miami Center
Sat 10:53:47 AM 27.6486 -84.2278 287° West 334 384 40,000  Level Jacksonville Center
Sat 10:54:47 AM 27.6767 -84.3264 288° West 329 379 40,000  Level Jacksonville Center
Sat 10:55:47 AM 27.6986 -84.4228 284° West 329 379 40,000  Level Jacksonville Center
Sat 10:56:47 AM 27.7181 -84.5217 283° West 322 371 40,000  Level Jacksonville Center
Sat 10:57:47 AM 27.7503 -84.6206 290° West 322 371 40,000  Level Jacksonville Center
Sat 10:58:47 AM 27.7761 -84.7194 286° West 327 376 40,000  Level Jacksonville Center
Sat 10:59:47 AM 27.7975 -84.8278 283° West 326 375 40,000  Level Jacksonville Center
Sat 11:00:47 AM 27.8231 -84.9175 288° West 326 375 40,000  Level Jacksonville Center
Sat 11:01:47 AM 27.8508 -85.0189 287° West 326 375 40,000  Level Jacksonville Center
Sat 11:02:47 AM 27.8761 -85.1181 286° West 326 375 40,000  Level Jacksonville Center
Sat 11:03:47 AM 27.9036 -85.2172 287° West 333 383 40,000 -50 Level Jacksonville Center
Sat 11:04:47 AM 27.9289 -85.3236 285° West 339 390 39,900  Descending Jacksonville Center
Sat 11:05:47 AM 27.9542 -85.4206 286° West 339 390 40,000 50 Climbing Jacksonville Center
Sat 11:06:47 AM 27.9811 -85.5292 286° West 339 390 40,000 -50 Level Jacksonville Center
Sat 11:07:47 AM 28.0061 -85.6333 285° West 340 391 39,900  Descending Jacksonville Center
Sat 11:08:47 AM 28.0308 -85.7375 285° West 348 400 40,000 50 Climbing Jacksonville Center
Sat 11:09:47 AM 28.0600 -85.8369 288° West 348 400 40,000  Level Jacksonville Center
Sat 11:10:47 AM 28.0847 -85.9389 285° West 345 397 40,000  Level Jacksonville Center
Sat 11:11:47 AM 28.1114 -86.0431 286° West 345 397 40,000  Level Jacksonville Center
Sat 11:12:47 AM 28.1381 -86.1500 286° West 345 397 40,000  Level Jacksonville Center
Sat 11:13:47 AM 28.1625 -86.2447 286° West 345 397 40,000  Level Jacksonville Center
Sat 11:14:47 AM 28.1869 -86.3517 285° West 338 389 40,000  Level Jacksonville Center
Sat 11:15:47 AM 28.2153 -86.4586 287° West 348 400 40,000  Level Jacksonville Center
Sat 11:16:47 AM 28.2417 -86.5631 286° West 348 400 40,000  Level Jacksonville Center
Sat 11:17:47 AM 28.2656 -86.6678 285° West 342 394 40,000  Level Jacksonville Center
Sat 11:18:47 AM 28.2878 -86.7650 285° West 342 394 40,000  Level Jacksonville Center
Sat 11:19:47 AM 28.3136 -86.8722 285° West 349 402 40,000  Level Jacksonville Center
Sat 11:20:47 AM 28.3397 -86.9769 286° West 343 395 40,000  Level Jacksonville Center
Sat 11:21:47 AM 28.3675 -87.0819 287° West 343 395 40,000  Level Jacksonville Center
Sat 11:22:47 AM 28.3892 -87.1817 284° West 343 395 40,000  Level Jacksonville Center
Sat 11:23:47 AM 28.4150 -87.2867 286° West 344 396 40,000  Level Jacksonville Center
Sat 11:24:47 AM 28.4406 -87.3894 286° West 350 403 40,000  Level Jacksonville Center
Sat 11:25:21 AM 28.4558 -87.4578 284° West 345 397 40,000  Level Houston Center
Sat 11:26:23 AM 28.4778 -87.5519 285° West 342 394 40,000  Level Houston Center
Sat 11:27:25 AM 28.5042 -87.6686 284° West 347 399 40,000 -48 Level Houston Center
Sat 11:28:28 AM 28.5325 -87.7842 286° West 345 397 39,900  Descending Houston Center
Sat 11:29:30 AM 28.5575 -87.8908 285° West 348 400 40,000 48 Climbing Houston Center
Sat 11:30:32 AM 28.5817 -87.9967 285° West 349 402 40,000  Level Houston Center
Sat 11:31:34 AM 28.6083 -88.1097 285° West 348 400 40,000  Level Houston Center
Sat 11:32:36 AM 28.6339 -88.2178 285° West 353 406 40,000  Level Houston Center
Sat 11:33:38 AM 28.6583 -88.3247 285° West 351 404 40,000 -48 Level Houston Center
Sat 11:34:40 AM 28.6828 -88.4325 285° West 353 406 39,900  Descending Houston Center
Sat 11:35:42 AM 28.7069 -88.5403 284° West 351 404 40,000 48 Climbing Houston Center
Sat 11:36:44 AM 28.7364 -88.6711 284° West 354 407 40,000  Level Houston Center
Sat 11:37:47 AM 28.7608 -88.7783 285° West 351 404 40,000  Level Houston Center
Sat 11:38:49 AM 28.7853 -88.8867 284° West 354 407 40,000  Level Houston Center
Sat 11:39:51 AM 28.8089 -88.9953 284° West 352 405 40,000  Level Houston Center
Sat 11:40:53 AM 28.8336 -89.1036 285° West 354 407 40,000  Level Houston Center
Sat 11:41:55 AM 28.8572 -89.2114 284° West 351 404 40,000  Level Houston Center
Sat 11:42:57 AM 28.8861 -89.3419 284° West 352 405 40,000  Level Houston Center
Sat 11:43:59 AM 28.9100 -89.4497 284° West 353 406 40,000  Level Houston Center
Sat 11:45:01 AM 28.9339 -89.5572 284° West 349 402 40,000  Level Houston Center
Sat 11:46:03 AM 28.9561 -89.6658 283° West 352 405 40,000  Level Houston Center
Sat 11:47:05 AM 28.9800 -89.7706 285° West 345 397 40,000  Level Houston Center
Sat 11:48:07 AM 29.0031 -89.8792 284° West 349 402 40,000  Level Houston Center
Sat 11:49:10 AM 29.0306 -90.0078 284° West 349 402 40,000  Level Houston Center
Sat 11:50:12 AM 29.0547 -90.1153 284° West 349 402 40,000  Level Houston Center
Sat 11:51:14 AM 29.0772 -90.2244 283° West 352 405 40,000  Level Houston Center
Sat 11:52:16 AM 29.1011 -90.3333 284° West 354 407 40,000  Level Houston Center
Sat 11:53:18 AM 29.1244 -90.4425 284° West 354 407 40,000  Level Houston Center
Sat 11:54:20 AM 29.1472 -90.5522 283° West 355 409 40,000  Level Houston Center
Sat 11:55:22 AM 29.1667 -90.6878 279° West 360 414 40,000  Level Houston Center
Sat 11:56:24 AM 29.1822 -90.8000 279° West 360 414 40,000  Level Houston Center
Sat 11:57:26 AM 29.1983 -90.9142 279° West 363 418 40,000  Level Houston Center
Sat 11:58:29 AM 29.2125 -91.0278 278° West 361 415 40,000  Level Houston Center
Sat 11:59:31 AM 29.2278 -91.1406 279° West 360 414 40,000  Level Houston Center
Sat 12:00:33 PM 29.2414 -91.2550 278° West 362 417 40,000  Level Houston Center
Sat 12:01:35 PM 29.2589 -91.3908 278° West 360 414 40,000  Level Houston Center
Sat 12:02:37 PM 29.2742 -91.5050 279° West 364 419 40,000  Level Houston Center
Sat 12:03:39 PM 29.2883 -91.6183 278° West 361 415 40,000  Level Houston Center
Sat 12:04:41 PM 29.3011 -91.7236 278° West 363 418 40,000  Level Houston Center
Sat 12:05:45 PM 29.3181 -91.8594 278° West 360 414 40,000  Level Houston Center
Sat 12:06:45 PM 29.3325 -91.9731 278° West 362 417 40,000  Level Houston Center
Sat 12:07:47 PM 29.3464 -92.0858 278° West 359 413 40,000  Level Houston Center
Sat 12:08:50 PM 29.3594 -92.1969 278° West 355 409 40,000  Level Houston Center
Sat 12:09:52 PM 29.3731 -92.3075 278° West 351 404 40,000  Level Houston Center
Sat 12:10:54 PM 29.3881 -92.4403 277° West 352 405 40,000  Level Houston Center
Sat 12:11:56 PM 29.4011 -92.5514 278° West 351 404 40,000  Level Houston Center
Sat 12:12:58 PM 29.4144 -92.6600 278° West 347 399 40,000  Level Houston Center
Sat 12:14:00 PM 29.4275 -92.7708 278° West 350 403 40,000  Level Houston Center
Sat 12:15:02 PM 29.4397 -92.8808 277° West 348 400 40,000  Level Houston Center
Sat 12:16:04 PM 29.4533 -92.9917 278° West 350 403 40,000  Level Houston Center
Sat 12:17:06 PM 29.4661 -93.1031 278° West 351 404 40,000  Level Houston Center
Sat 12:18:08 PM 29.4808 -93.2364 277° West 351 404 40,000  Level Houston Center
Sat 12:19:11 PM 29.4933 -93.3469 277° West 350 403 40,000  Level Houston Center
Sat 12:20:13 PM 29.5061 -93.4583 278° West 351 404 40,000  Level Houston Center
Sat 12:21:15 PM 29.5189 -93.5706 277° West 353 406 40,000  Level Houston Center
Sat 12:22:17 PM 29.5306 -93.6819 277° West 352 405 40,000  Level Houston Center
Sat 12:23:19 PM 29.5431 -93.7931 277° West 352 405 40,000  Level Houston Center
Sat 12:24:21 PM 29.5581 -93.9283 277° West 354 407 40,000  Level Houston Center
Sat 12:25:23 PM 29.5694 -94.0394 277° West 352 405 40,000  Level Houston Center
Sat 12:26:25 PM 29.5814 -94.1525 277° West 355 409 40,000  Level Houston Center
Sat 12:27:27 PM 29.5933 -94.2600 277° West 357 411 40,000 -432 Level Houston Center
Sat 12:28:30 PM 29.6050 -94.3736 277° West 358 412 39,100 -1,008 Descending Houston Center
Sat 12:29:32 PM 29.6197 -94.5119 277° West 365 420 37,900 -581 Descending Houston Center
Sat 12:30:34 PM 29.6308 -94.6244 277° West 358 412 37,900  Level Houston Center
Sat 12:31:36 PM 29.6419 -94.7375 276° West 358 412 37,900  Level Houston Center
Sat 12:32:38 PM 29.6539 -94.8517 277° West 361 415 37,900  Level Houston Center
Sat 12:33:40 PM 29.6653 -94.9672 276° West 364 419 37,900  Level Houston Center
Sat 12:34:42 PM 29.6778 -95.0922 277° West 367 422 37,900 -387 Level Houston Center
Sat 12:35:44 PM 29.6911 -95.2100 277° West 369 425 37,100 -1,248 Descending Houston Center
Sat 12:36:47 PM 29.7014 -95.3356 275° West 374 430 35,300 -1,872 Descending Houston Center
Sat 12:37:49 PM 29.7150 -95.4794 276° West 381 438 33,200 -1,839 Descending Houston Center
Sat 12:38:51 PM 29.7267 -95.6008 276° West 383 441 31,500 -1,694 Descending Houston Center
Sat 12:39:53 PM 29.7383 -95.7256 276° West 391 450 29,700 -1,742 Descending Houston Center
Sat 12:40:55 PM 29.7500 -95.8481 276° West 388 447 27,900 -1,694 Descending Houston Center
Sat 12:41:57 PM 29.7608 -95.9714 276° West 388 447 26,200 -1,790 Descending Houston Center
Sat 12:42:59 PM 29.7758 -96.1100 277° West 385 443 24,200 -1,839 Descending Houston Center
Sat 12:44:01 PM 29.8178 -96.2200 294° West 374 430 22,400 -1,680 Descending Houston Center
Sat 12:45:04 PM 29.8567 -96.3303 292° West 374 430 20,700 -1,680 Descending Houston Center
Sat 12:46:06 PM 29.8972 -96.4397 293° West 374 430 18,900 -1,887 Descending Houston Center
Sat 12:47:08 PM 29.9431 -96.5703 292° West 370 426 16,800 -1,839 Descending Houston Center
Sat 12:48:10 PM 29.9817 -96.6775 293° West 365 420 15,100 -1,645 Descending Houston Center
Sat 12:49:12 PM 30.0192 -96.7803 293° West 354 407 13,400 -1,500 Descending Houston Center
Sat 12:50:14 PM 30.0553 -96.8819 292° West 347 399 12,000 -726 Descending Houston Center
Sat 12:51:16 PM 30.0861 -96.9875 289° West 349 402 11,900 -435 Descending Houston Center
Sat 12:52:18 PM 30.1297 -97.1036 293° West 353 406 11,100 -919 Descending Houston Center
Sat 12:53:20 PM 30.1653 -97.1872 296° West 289 333 10,000 -1,056 Descending Houston Center
Sat 12:54:23 PM 30.2014 -97.2686 297° West 281 323 8,900 -1,104 Descending Houston Center
Sat 12:55:25 PM 30.2394 -97.3472 299° West 278 320 7,700 -1,258 Descending Houston Center
Sat 12:56:27 PM 30.2819 -97.4333 300° West 267 307 6,300 -1,694 Descending Houston Center
Sat 12:57:29 PM 30.3067 -97.5092 291° West 256 295 4,200 -1,839 Descending Houston Center
Sat 12:58:31 PM 30.3275 -97.5806 289° West 244 281 2,500 -823 Descending Houston Center
Sat 12:59:33 PM 30.3031 -97.6542 249° West 248 285 2,500 -381 Level Houston Center
Sat 01:00:37 PM 30.2606 -97.6586 185° South 175 201 1,700 -774 Descending Houston Center
Sat 01:01:37 PM 30.2239 -97.6586 180° South 143 165 900 -800 Descending Houston Center
Sat 01:03:00 PM 30.1945 -97.6699 187° South  Level Estimated
Sat 01:10:00 PM 30.1945 -97.6699 187° South  Level Estimated

Login

Don't have an account? Register now (free) for customized features, flight alerts, and more!